createdAt,value
2023-05-03T00:04:40.119Z,4.1
2023-05-03T00:10:44.859Z,4.11
2023-05-03T00:14:47.645Z,4.1
2023-05-03T00:20:52.025Z,4.1
2023-05-03T00:24:55.181Z,4.1
2023-05-03T00:26:56.479Z,4.1
2023-05-03T00:30:58.884Z,4.1
2023-05-03T00:35:01.345Z,4.1
2023-05-03T00:37:02.962Z,4.1
2023-05-03T00:41:06.823Z,4.1
2023-05-03T00:47:11.021Z,4.1
2023-05-03T00:53:14.788Z,4.1
2023-05-03T00:57:17.001Z,4.1
2023-05-03T01:03:21.444Z,4.1
2023-05-03T01:07:24.064Z,4.1
2023-05-03T01:09:25.308Z,4.1
2023-05-03T01:13:27.931Z,4.1
2023-05-03T01:17:30.982Z,4.09
2023-05-03T01:19:32.018Z,4.1
2023-05-03T01:23:35.095Z,4.1
2023-05-03T01:27:37.916Z,4.1
2023-05-03T01:29:39.585Z,4.09
2023-05-03T01:33:42.613Z,4.1
2023-05-03T01:35:44.474Z,4.09
2023-05-03T01:39:47.407Z,4.09
2023-05-03T01:45:52.103Z,4.09
2023-05-03T01:51:55.642Z,4.09
2023-05-03T01:55:58.775Z,4.09
2023-05-03T02:02:03.116Z,4.09
2023-05-03T02:06:05.859Z,4.09
2023-05-03T02:08:06.838Z,4.09
2023-05-03T02:12:09.608Z,4.09
2023-05-03T02:12:53.529Z,4.08
2023-05-03T02:16:56.644Z,4.08
2023-05-03T02:23:01.186Z,4.08
2023-05-03T02:29:06.206Z,4.08
2023-05-03T02:33:09.616Z,4.08
2023-05-03T02:39:13.991Z,4.08
2023-05-03T02:43:17.001Z,4.08
2023-05-03T02:45:18.560Z,4.08
2023-05-03T02:49:20.931Z,4.08
2023-05-03T02:53:24.311Z,4.08
2023-05-03T02:55:26.097Z,4.08
2023-05-03T02:59:28.816Z,4.08
2023-05-03T03:05:33.420Z,4.08
2023-05-03T03:11:38.516Z,4.08
2023-05-03T03:15:41.138Z,4.08
2023-05-03T03:21:45.614Z,4.08
2023-05-03T03:25:48.483Z,4.08
2023-05-03T03:27:50.152Z,4.08
2023-05-03T03:31:52.891Z,4.08
2023-05-03T03:35:55.290Z,4.07
2023-05-03T03:37:57.167Z,4.07
2023-05-03T03:41:59.851Z,4.08
2023-05-03T03:48:04.359Z,4.07
2023-05-03T03:54:09.114Z,4.08
2023-05-03T03:58:11.998Z,4.07
2023-05-03T04:04:16.542Z,4.07
2023-05-03T04:08:19.571Z,4.07
2023-05-03T04:10:21.085Z,4.07
2023-05-03T04:14:23.979Z,4.07
2023-05-03T04:18:26.619Z,4.07
2023-05-03T04:20:27.911Z,4.07
2023-05-03T04:24:30.718Z,4.07
2023-05-03T04:30:34.957Z,4.07
2023-05-03T04:34:37.252Z,4.07
2023-05-03T04:36:38.633Z,4.06
2023-05-03T04:38:39.946Z,4.07
2023-05-03T04:40:40.994Z,4.06
2023-05-03T04:46:45.554Z,4.07
2023-05-03T04:48:47.341Z,4.06
2023-05-03T04:52:49.534Z,4.07
2023-05-03T04:57:02.025Z,4.06
2023-05-03T05:02:56.819Z,4.06
2023-05-03T05:06:59.778Z,4.06
2023-05-03T05:09:01.186Z,4.06
2023-05-03T05:13:03.953Z,4.06
2023-05-03T05:17:07.099Z,4.06
2023-05-03T05:19:08.913Z,4.06
2023-05-03T05:23:11.853Z,4.06
2023-05-03T05:29:16.239Z,4.06
2023-05-03T05:35:21.102Z,4.07
2023-05-03T05:39:23.822Z,4.06
2023-05-03T05:45:27.140Z,4.07
2023-05-03T05:49:29.789Z,4.08
2023-05-03T05:51:31.114Z,4.08
2023-05-03T05:55:34.169Z,4.08
2023-05-03T05:59:36.354Z,4.08
2023-05-03T06:01:37.317Z,4.08
2023-05-03T06:05:40.908Z,4.08
2023-05-03T06:11:45.706Z,4.09
2023-05-03T06:17:49.692Z,4.1
2023-05-03T06:21:52.133Z,4.1
2023-05-03T06:27:56.785Z,4.11
2023-05-03T06:32:00.193Z,4.1
2023-05-03T06:34:01.959Z,4.11
2023-05-03T06:38:04.895Z,4.13
2023-05-03T06:42:07.963Z,4.14
2023-05-03T06:44:08.871Z,4.15
2023-05-03T06:48:11.717Z,4.16
2023-05-03T06:52:14.646Z,4.16
2023-05-03T06:54:16.450Z,4.17
2023-05-03T06:58:19.270Z,4.17
2023-05-03T07:00:20.705Z,4.17
2023-05-03T07:04:23.220Z,4.17
2023-05-03T07:10:28.573Z,4.18
2023-05-03T07:16:31.677Z,4.19
2023-05-03T07:20:42.701Z,4.19
2023-05-03T07:26:38.982Z,4.19
2023-05-03T07:30:41.998Z,4.19
2023-05-03T07:32:43.178Z,4.19
2023-05-03T07:36:45.935Z,4.19
2023-05-03T07:40:48.521Z,4.19
2023-05-03T07:42:50.114Z,4.19
2023-05-03T07:46:53.440Z,4.2
2023-05-03T07:50:55.351Z,4.2
2023-05-03T07:52:56.964Z,4.2
2023-05-03T08:03:05.315Z,4.2
2023-05-03T08:09:10.007Z,4.2
2023-05-03T08:13:12.256Z,4.2
2023-05-03T08:15:13.981Z,4.2
2023-05-03T08:19:18.088Z,4.2
2023-05-03T08:23:21.173Z,4.2
2023-05-03T08:25:22.645Z,4.2
2023-05-03T08:29:27.070Z,4.19
2023-05-03T08:35:29.257Z,4.19
2023-05-03T08:41:33.302Z,4.18
2023-05-03T08:45:36.855Z,4.19
2023-05-03T08:51:40.746Z,4.18
2023-05-03T08:55:42.786Z,4.18
2023-05-03T08:57:43.890Z,4.18
2023-05-03T08:58:27.660Z,4.18
2023-05-03T09:02:30.367Z,4.18
2023-05-03T09:06:32.276Z,4.18
2023-05-03T09:10:34.376Z,4.18
2023-05-03T09:12:35.872Z,4.18
2023-05-03T09:16:38.164Z,4.18
2023-05-03T09:18:39.381Z,4.18
2023-05-03T09:20:40.466Z,4.18
2023-05-03T09:22:41.500Z,4.18
2023-05-03T09:28:46.209Z,4.17
2023-05-03T09:30:47.511Z,4.17
2023-05-03T09:34:50.767Z,4.17
2023-05-03T09:38:53.230Z,4.17
2023-05-03T09:44:56.670Z,4.17
2023-05-03T09:48:59.307Z,4.17
2023-05-03T09:51:00.123Z,4.17
2023-05-03T09:55:03.345Z,4.17
2023-05-03T09:59:05.896Z,4.17
2023-05-03T10:01:07.465Z,4.17
2023-05-03T10:05:10.138Z,4.17
2023-05-03T10:11:14.298Z,4.17
2023-05-03T10:17:18.066Z,4.17
2023-05-03T10:21:21.263Z,4.17
2023-05-03T10:27:25.524Z,4.16
2023-05-03T10:31:28.074Z,4.17
2023-05-03T10:33:29.130Z,4.17
2023-05-03T10:37:31.914Z,4.16
2023-05-03T10:41:34.442Z,4.16
2023-05-03T10:43:35.800Z,4.17
2023-05-03T10:47:39.067Z,4.17
2023-05-03T10:53:42.753Z,4.16
2023-05-03T10:59:46.526Z,4.16
2023-05-03T11:03:49.453Z,4.16
2023-05-03T11:09:53.142Z,4.16
2023-05-03T11:13:56.749Z,4.16
2023-05-03T11:15:57.888Z,4.16
2023-05-03T11:20:00.451Z,4.16
2023-05-03T11:24:03.003Z,4.16
2023-05-03T11:26:03.886Z,4.16
2023-05-03T11:30:06.488Z,4.16
2023-05-03T11:32:07.751Z,4.16
2023-05-03T11:36:10.621Z,4.16
2023-05-03T11:42:15.149Z,4.16
2023-05-03T11:48:19.236Z,4.16
2023-05-03T11:52:21.933Z,4.16
2023-05-03T11:58:26.942Z,4.16
2023-05-03T12:02:30.211Z,4.15
2023-05-03T12:04:31.869Z,4.15
2023-05-03T12:08:37.422Z,4.14
2023-05-03T12:12:41.461Z,4.15
2023-05-03T12:14:39.420Z,4.15
2023-05-03T12:18:41.743Z,4.15
2023-05-03T12:24:45.749Z,4.15
2023-05-03T12:30:52.611Z,4.15
2023-05-03T12:34:52.029Z,4.15
2023-05-03T12:40:56.280Z,4.14
2023-05-03T12:44:59.289Z,4.14
2023-05-03T12:47:01.130Z,4.14
2023-05-03T12:51:18.187Z,4.14
2023-05-03T12:55:05.015Z,4.14
2023-05-03T12:57:08.717Z,4.14
2023-05-03T13:05:21.021Z,4.14
2023-05-03T13:07:13.703Z,4.14
2023-05-03T13:11:15.224Z,4.18
2023-05-03T13:13:16.028Z,4.18
2023-05-03T13:15:17.647Z,4.18
2023-05-03T13:17:19.260Z,4.18
2023-05-03T13:23:22.465Z,4.18
2023-05-03T13:25:24.194Z,4.19
2023-05-03T13:29:26.940Z,4.19
2023-05-03T13:33:29.652Z,4.19
2023-05-03T13:39:33.994Z,4.19
2023-05-03T13:43:36.639Z,4.2
2023-05-03T13:45:37.865Z,4.2
2023-05-03T13:49:40.631Z,4.19
2023-05-03T13:53:43.169Z,4.2
2023-05-03T13:55:45.176Z,4.2
2023-05-03T13:59:48.160Z,4.2
2023-05-03T14:05:52.077Z,4.2
2023-05-03T14:11:57.566Z,4.2
2023-05-03T14:15:57.928Z,4.2
2023-05-03T14:22:01.883Z,4.19
2023-05-03T14:26:04.908Z,4.19
2023-05-03T14:28:06.505Z,4.19
2023-05-03T14:32:08.835Z,4.19
2023-05-03T14:36:10.804Z,4.18
2023-05-03T14:38:11.803Z,4.19
2023-05-03T14:42:14.587Z,4.18
2023-05-03T14:48:19.304Z,4.18
2023-05-03T14:54:23.209Z,4.18
2023-05-03T14:58:25.877Z,4.18
2023-05-03T15:04:29.845Z,4.18
2023-05-03T15:08:32.232Z,4.18
2023-05-03T15:10:34.703Z,4.18
2023-05-03T15:14:37.280Z,4.18
2023-05-03T15:18:40.120Z,4.17
2023-05-03T15:20:41.212Z,4.17
2023-05-03T15:24:43.974Z,4.18
2023-05-03T15:30:48.322Z,4.17
2023-05-03T15:34:50.280Z,4.17
2023-05-03T15:36:51.817Z,4.17
2023-05-03T15:40:55.213Z,4.17
2023-05-03T15:43:41.754Z,4.17
2023-05-03T15:47:44.764Z,4.17
2023-05-03T15:51:47.687Z,4.17
2023-05-03T15:57:52.263Z,4.17
2023-05-03T16:01:55.235Z,4.17
2023-05-03T16:05:57.873Z,4.17
2023-05-03T16:07:59.053Z,4.17
2023-05-03T16:12:01.657Z,4.17
2023-05-03T16:14:02.976Z,4.17
2023-05-03T16:18:05.751Z,4.17
2023-05-03T16:24:09.969Z,4.17
2023-05-03T16:30:14.916Z,4.17
2023-05-03T16:34:17.948Z,4.17
2023-05-03T16:40:21.352Z,4.16
2023-05-03T16:44:23.244Z,4.16
2023-05-03T16:46:24.398Z,4.16
2023-05-03T16:50:26.571Z,4.16
2023-05-03T16:54:28.419Z,4.16
2023-05-03T16:56:29.461Z,4.16
2023-05-03T17:00:32.368Z,4.16
2023-05-03T17:06:36.992Z,4.16
2023-05-03T17:12:40.746Z,4.16
2023-05-03T17:16:43.733Z,4.16
2023-05-03T17:22:48.064Z,4.16
2023-05-03T17:26:50.368Z,4.16
2023-05-03T17:28:52.106Z,4.16
2023-05-03T17:32:55.131Z,4.16
2023-05-03T17:36:57.892Z,4.16
2023-05-03T17:38:59.157Z,4.16
2023-05-03T17:43:01.817Z,4.16
2023-05-03T17:49:05.290Z,4.15
2023-05-03T17:53:07.549Z,4.15
2023-05-03T17:55:19.069Z,4.16
2023-05-03T17:57:10.950Z,4.15
2023-05-03T17:59:12.228Z,4.15
2023-05-03T18:05:16.587Z,4.15
2023-05-03T18:07:17.798Z,4.15
2023-05-03T18:11:20.792Z,4.15
2023-05-03T18:15:23.830Z,4.15
2023-05-03T18:21:28.140Z,4.15
2023-05-03T18:25:31.733Z,4.15
2023-05-03T18:31:34.635Z,4.15
2023-05-03T18:35:38.031Z,4.14
2023-05-03T18:37:39.319Z,4.14
2023-05-03T18:41:41.506Z,4.14
2023-05-03T18:47:46.199Z,4.14
2023-05-03T18:53:50.940Z,4.14
2023-05-03T18:57:54.263Z,4.14
2023-05-03T19:03:58.086Z,4.14
2023-05-03T19:08:01.130Z,4.14
2023-05-03T19:10:02.441Z,4.14
2023-05-03T19:14:05.059Z,4.14
2023-05-03T19:18:08.464Z,4.14
2023-05-03T19:20:10.064Z,4.14
2023-05-03T19:24:12.496Z,4.13
2023-05-03T19:30:17.459Z,4.13
2023-05-03T19:36:21.690Z,4.13
2023-05-03T19:40:25.268Z,4.13
2023-05-03T19:46:28.525Z,4.13
2023-05-03T19:50:30.535Z,4.13
2023-05-03T19:52:31.707Z,4.13
2023-05-03T19:56:35.175Z,4.13
2023-05-03T20:00:37.960Z,4.13
2023-05-03T20:02:39.690Z,4.13
2023-05-03T20:06:42.485Z,4.13
2023-05-03T20:12:46.118Z,4.13
2023-05-03T20:18:50.500Z,4.13
2023-05-03T20:22:53.409Z,4.13
2023-05-03T20:28:57.634Z,4.13
2023-05-03T20:33:00.245Z,4.12
2023-05-03T20:35:01.951Z,4.12
2023-05-03T20:39:04.595Z,4.13
2023-05-03T20:43:07.475Z,4.12
2023-05-03T20:45:08.777Z,4.12
2023-05-03T20:49:11.154Z,4.12
2023-05-03T20:53:13.177Z,4.12
2023-05-03T20:55:15.042Z,4.12
2023-05-03T20:59:17.640Z,4.12
2023-05-03T21:01:19.427Z,4.12
2023-05-03T21:03:21.292Z,4.12
2023-05-03T21:05:22.259Z,4.12
2023-05-03T21:11:26.439Z,4.12
2023-05-03T21:17:30.811Z,4.12
2023-05-03T21:21:33.695Z,4.12
2023-05-03T21:27:37.637Z,4.12
2023-05-03T21:31:41.053Z,4.12
2023-05-03T21:35:44.699Z,4.11
2023-05-03T21:37:46.562Z,4.11
2023-05-03T21:41:49.593Z,4.11
2023-05-03T21:43:50.935Z,4.11
2023-05-03T21:45:54.194Z,4.11
2023-05-03T21:47:54.039Z,4.12
2023-05-03T21:53:58.421Z,4.11
2023-05-03T21:55:59.777Z,4.11
2023-05-03T22:00:03.407Z,4.11
2023-05-03T22:04:06.286Z,4.11
2023-05-03T22:10:10.670Z,4.11
2023-05-03T22:14:13.351Z,4.11
2023-05-03T22:16:14.464Z,4.11
2023-05-03T22:20:17.322Z,4.1
2023-05-03T22:24:20.145Z,4.11
2023-05-03T22:26:21.301Z,4.1
2023-05-03T22:31:08.300Z,4.1
2023-05-03T22:37:12.022Z,4.1
2023-05-03T22:41:15.188Z,4.1
2023-05-03T22:47:19.423Z,4.1
2023-05-03T22:51:22.846Z,4.1
2023-05-03T22:53:24.060Z,4.1
2023-05-03T22:57:27.151Z,4.1
2023-05-03T23:01:31.000Z,4.1
2023-05-03T23:03:32.117Z,4.1
2023-05-03T23:07:35.441Z,4.1
2023-05-03T23:13:40.664Z,4.1
2023-05-03T23:19:45.081Z,4.1
2023-05-03T23:23:48.088Z,4.1
2023-05-03T23:29:52.358Z,4.1
2023-05-03T23:33:55.815Z,4.09
2023-05-03T23:35:57.692Z,4.09
2023-05-03T23:40:01.093Z,4.1
2023-05-03T23:44:03.807Z,4.1
2023-05-03T23:46:04.854Z,4.09
2023-05-03T23:50:08.710Z,4.09
2023-05-03T23:54:11.705Z,4.09
2023-05-03T23:56:13.464Z,4.09
